Time,TemperatureF,DewpointF,PressureIn,WindDirection,WindDirectionDegrees,WindSpeedMPH,WindSpeedGustMPH,Humidity,HourlyPrecipIn,Conditions,Clouds,dailyrainin,SoftwareType,DateUTC
2013-08-13 00:09:00,67.3,62.3,29.73,ENE,67,0.0,-999.0,84,-99.99,,,0.00,Acu-Link.com,2013-08-13 05:09:00,
2013-08-13 00:24:00,66.9,62.2,29.73,South,180,0.0,-999.0,85,-99.99,,,0.00,Acu-Link.com,2013-08-13 05:24:00,
2013-08-13 00:39:00,66.4,61.7,29.73,ESE,112,0.0,-999.0,85,-99.99,,,0.00,Acu-Link.com,2013-08-13 05:39:00,
2013-08-13 00:54:00,66.0,61.4,29.73,SSW,202,0.0,-999.0,85,-99.99,,,0.00,Acu-Link.com,2013-08-13 05:54:00,
2013-08-13 01:10:00,66.0,60.7,29.72,SSE,157,0.0,-999.0,83,-99.99,,,0.00,Acu-Link.com,2013-08-13 06:10:00,
2013-08-13 01:25:00,66.0,60.3,29.73,South,180,0.0,-999.0,82,-99.99,,,0.00,Acu-Link.com,2013-08-13 06:25:00,
2013-08-13 01:40:00,65.8,59.8,29.72,SE,135,0.0,-999.0,81,-99.99,,,0.00,Acu-Link.com,2013-08-13 06:40:00,
2013-08-13 01:55:00,65.7,59.7,29.72,West,270,0.0,-999.0,81,-99.99,,,0.00,Acu-Link.com,2013-08-13 06:55:00,
2013-08-13 02:10:00,65.3,59.3,29.71,ESE,112,0.0,-999.0,81,-99.99,,,0.00,Acu-Link.com,2013-08-13 07:10:00,
2013-08-13 02:26:00,64.6,59.0,29.71,SSE,157,0.0,-999.0,82,-99.99,,,0.00,Acu-Link.com,2013-08-13 07:26:00,
2013-08-13 02:41:00,64.2,58.9,29.72,SW,225,0.0,-999.0,83,-99.99,,,0.00,Acu-Link.com,2013-08-13 07:41:00,
2013-08-13 02:56:00,64.0,58.7,29.73,ESE,112,0.0,-999.0,83,-99.99,,,0.00,Acu-Link.com,2013-08-13 07:56:00,
2013-08-13 03:12:00,63.5,58.6,29.72,ESE,112,0.0,-999.0,84,-99.99,,,0.00,Acu-Link.com,2013-08-13 08:12:00,
2013-08-13 03:27:00,63.3,58.4,29.73,NW,315,0.0,-999.0,84,-99.99,,,0.00,Acu-Link.com,2013-08-13 08:27:00,
2013-08-13 03:42:00,63.1,58.2,29.72,SSE,157,0.0,-999.0,84,-99.99,,,0.00,Acu-Link.com,2013-08-13 08:42:00,
2013-08-13 03:58:00,62.8,57.9,29.72,East,90,0.0,-999.0,84,-99.99,,,0.00,Acu-Link.com,2013-08-13 08:58:00,
2013-08-13 04:13:00,62.2,57.6,29.73,SSE,157,0.0,-999.0,85,-99.99,,,0.00,Acu-Link.com,2013-08-13 09:13:00,
2013-08-13 04:28:00,61.9,57.3,29.73,ESE,112,0.0,-999.0,85,-99.99,,,0.00,Acu-Link.com,2013-08-13 09:28:00,
2013-08-13 04:43:00,62.4,57.2,29.74,SSE,157,0.0,-999.0,83,-99.99,,,0.00,Acu-Link.com,2013-08-13 09:43:00,
2013-08-13 04:58:00,61.7,56.8,29.75,SSE,157,0.0,-999.0,84,-99.99,,,0.00,Acu-Link.com,2013-08-13 09:58:00,
2013-08-13 05:13:00,60.8,56.6,29.76,East,90,0.0,-999.0,86,-99.99,,,0.00,Acu-Link.com,2013-08-13 10:13:00,
2013-08-13 05:29:00,60.6,56.4,29.76,ESE,112,0.0,-999.0,86,-99.99,,,0.00,Acu-Link.com,2013-08-13 10:29:00,
2013-08-13 05:44:00,60.6,56.4,29.75,East,90,0.0,-999.0,86,-99.99,,,0.00,Acu-Link.com,2013-08-13 10:44:00,
2013-08-13 05:59:00,60.4,56.5,29.76,East,90,0.0,-999.0,87,-99.99,,,0.00,Acu-Link.com,2013-08-13 10:59:00,
2013-08-13 06:15:00,60.3,56.7,29.77,East,90,0.0,-999.0,88,-99.99,,,0.00,Acu-Link.com,2013-08-13 11:15:00,
2013-08-13 06:30:00,60.3,57.0,29.78,ESE,112,0.0,-999.0,89,-99.99,,,0.00,Acu-Link.com,2013-08-13 11:30:00,
2013-08-13 06:45:00,60.8,57.5,29.78,East,90,4.2,-999.0,89,-99.99,,,0.00,Acu-Link.com,2013-08-13 11:45:00,
2013-08-13 07:00:00,61.3,58.0,29.78,ENE,67,1.1,-999.0,89,-99.99,,,0.00,Acu-Link.com,2013-08-13 12:00:00,
2013-08-13 07:15:00,62.2,58.3,29.78,East,90,2.7,-999.0,87,-99.99,,,0.00,Acu-Link.com,2013-08-13 12:15:00,
2013-08-13 07:31:00,62.2,58.3,29.79,East,90,3.7,-999.0,87,-99.99,,,0.00,Acu-Link.com,2013-08-13 12:31:00,
2013-08-13 07:46:00,62.2,58.3,29.80,NE,45,0.0,-999.0,87,-99.99,,,0.00,Acu-Link.com,2013-08-13 12:46:00,
2013-08-13 08:01:00,62.1,58.2,29.80,ESE,112,1.7,-999.0,87,-99.99,,,0.00,Acu-Link.com,2013-08-13 13:01:00,
2013-08-13 08:17:00,62.2,58.3,29.81,NNW,337,0.0,-999.0,87,-99.99,,,0.00,Acu-Link.com,2013-08-13 13:17:00,
2013-08-13 08:32:00,63.1,57.8,29.82,ESE,112,9.4,-999.0,83,-99.99,,,0.00,Acu-Link.com,2013-08-13 13:32:00,
2013-08-13 08:47:00,64.8,58.1,29.82,NNW,337,2.2,-999.0,79,-99.99,,,0.00,Acu-Link.com,2013-08-13 13:47:00,
2013-08-13 09:02:00,65.3,58.3,29.84,NNE,22,0.0,-999.0,78,-99.99,,,0.00,Acu-Link.com,2013-08-13 14:02:00,
2013-08-13 09:18:00,68.5,59.5,29.83,ESE,112,2.2,-999.0,73,-99.99,,,0.00,Acu-Link.com,2013-08-13 14:18:00,
2013-08-13 09:33:00,68.4,59.0,29.84,NE,45,0.0,-999.0,72,-99.99,,,0.00,Acu-Link.com,2013-08-13 14:33:00,
2013-08-13 09:48:00,68.2,59.6,29.84,NE,45,4.2,-999.0,74,-99.99,,,0.00,Acu-Link.com,2013-08-13 14:48:00,
2013-08-13 10:04:00,68.2,59.2,29.85,NE,45,4.2,-999.0,73,-99.99,,,0.00,Acu-Link.com,2013-08-13 15:04:00,
2013-08-13 10:19:00,69.1,58.9,29.86,ENE,67,4.7,-999.0,70,-99.99,,,0.00,Acu-Link.com,2013-08-13 15:19:00,
2013-08-13 10:34:00,68.7,58.5,29.86,East,90,8.3,-999.0,70,-99.99,,,0.00,Acu-Link.com,2013-08-13 15:34:00,
2013-08-13 10:50:00,69.1,59.3,29.87,NNW,337,0.0,-999.0,71,-99.99,,,0.00,Acu-Link.com,2013-08-13 15:50:00,
2013-08-13 11:05:00,72.1,60.1,29.86,ESE,112,0.0,-999.0,66,-99.99,,,0.00,Acu-Link.com,2013-08-13 16:05:00,
2013-08-13 11:20:00,72.0,59.6,29.86,ESE,112,0.0,-999.0,65,-99.99,,,0.00,Acu-Link.com,2013-08-13 16:20:00,
2013-08-13 11:35:00,71.1,58.7,29.87,ENE,67,3.7,-999.0,65,-99.99,,,0.00,Acu-Link.com,2013-08-13 16:35:00,
2013-08-13 11:51:00,70.5,58.2,29.87,East,90,4.2,-999.0,65,-99.99,,,0.00,Acu-Link.com,2013-08-13 16:51:00,
2013-08-13 12:06:00,70.9,59.0,29.87,NNE,22,3.7,-999.0,66,-99.99,,,0.00,Acu-Link.com,2013-08-13 17:06:00,
2013-08-13 12:21:00,72.1,58.8,29.88,ESE,112,1.1,-999.0,63,-99.99,,,0.00,Acu-Link.com,2013-08-13 17:21:00,
2013-08-13 12:37:00,71.4,57.2,29.88,East,90,5.3,-999.0,61,-99.99,,,0.00,Acu-Link.com,2013-08-13 17:37:00,
2013-08-13 12:52:00,71.4,57.2,29.87,NE,45,3.7,-999.0,61,-99.99,,,0.00,Acu-Link.com,2013-08-13 17:52:00,
2013-08-13 13:07:00,71.8,56.7,29.88,ESE,112,2.2,-999.0,59,-99.99,,,0.00,Acu-Link.com,2013-08-13 18:07:00,
2013-08-13 13:22:00,72.9,57.7,29.88,NNE,22,2.7,-999.0,59,-99.99,,,0.00,Acu-Link.com,2013-08-13 18:22:00,
2013-08-13 13:37:00,72.3,54.2,29.88,NNE,22,1.7,-999.0,53,-99.99,,,0.00,Acu-Link.com,2013-08-13 18:37:00,
2013-08-13 13:53:00,75.2,57.9,29.88,SSE,157,1.1,-999.0,55,-99.99,,,0.00,Acu-Link.com,2013-08-13 18:53:00,
2013-08-13 14:08:00,78.1,57.4,29.87,NW,315,5.8,-999.0,49,-99.99,,,0.00,Acu-Link.com,2013-08-13 19:08:00,
2013-08-13 14:23:00,77.7,53.4,29.88,ESE,112,5.3,-999.0,43,-99.99,,,0.00,Acu-Link.com,2013-08-13 19:23:00,
2013-08-13 14:38:00,79.0,53.3,29.87,NE,45,1.1,-999.0,41,-99.99,,,0.00,Acu-Link.com,2013-08-13 19:38:00,
2013-08-13 14:54:00,79.7,53.2,29.87,East,90,1.1,-999.0,40,-99.99,,,0.00,Acu-Link.com,2013-08-13 19:54:00,
2013-08-13 15:09:00,81.1,53.1,29.86,ESE,112,0.0,-999.0,38,-99.99,,,0.00,Acu-Link.com,2013-08-13 20:09:00,
2013-08-13 15:24:00,83.3,52.8,29.86,SSE,157,0.0,-999.0,35,-99.99,,,0.00,Acu-Link.com,2013-08-13 20:24:00,
2013-08-13 15:40:00,83.3,53.5,29.85,NNE,22,4.7,-999.0,36,-99.99,,,0.00,Acu-Link.com,2013-08-13 20:40:00,
2013-08-13 15:55:00,81.0,52.2,29.86,ESE,112,3.2,-999.0,37,-99.99,,,0.00,Acu-Link.com,2013-08-13 20:55:00,
2013-08-13 16:10:00,80.6,52.6,29.86,ESE,112,0.0,-999.0,38,-99.99,,,0.00,Acu-Link.com,2013-08-13 21:10:00,
2013-08-13 16:26:00,80.6,52.6,29.86,NW,315,2.7,-999.0,38,-99.99,,,0.00,Acu-Link.com,2013-08-13 21:26:00,
2013-08-13 16:41:00,76.3,51.5,29.86,ENE,67,1.1,-999.0,42,-99.99,,,0.00,Acu-Link.com,2013-08-13 21:41:00,
2013-08-13 16:56:00,74.5,52.3,29.85,SSW,202,0.0,-999.0,46,-99.99,,,0.00,Acu-Link.com,2013-08-13 21:56:00,
2013-08-13 17:11:00,73.2,51.2,29.86,East,90,0.0,-999.0,46,-99.99,,,0.00,Acu-Link.com,2013-08-13 22:11:00,
2013-08-13 17:26:00,72.0,50.7,29.86,East,90,1.1,-999.0,47,-99.99,,,0.00,Acu-Link.com,2013-08-13 22:26:00,
2013-08-13 17:41:00,70.9,50.2,29.85,WNW,292,1.1,-999.0,48,-99.99,,,0.00,Acu-Link.com,2013-08-13 22:41:00,
2013-08-13 17:57:00,70.9,51.9,29.85,NNE,22,0.0,-999.0,51,-99.99,,,0.00,Acu-Link.com,2013-08-13 22:57:00,
2013-08-13 18:12:00,70.3,51.8,29.85,ESE,112,1.7,-999.0,52,-99.99,,,0.00,Acu-Link.com,2013-08-13 23:12:00,
2013-08-13 18:27:00,69.3,50.9,29.84,SE,135,0.0,-999.0,52,-99.99,,,0.00,Acu-Link.com,2013-08-13 23:27:00,
2013-08-13 18:43:00,68.5,50.2,29.85,South,180,0.0,-999.0,52,-99.99,,,0.00,Acu-Link.com,2013-08-13 23:43:00,
2013-08-13 18:58:00,67.6,50.4,29.85,ESE,112,0.0,-999.0,54,-99.99,,,0.00,Acu-Link.com,2013-08-13 23:58:00,
2013-08-13 19:13:00,66.9,50.7,29.86,NNE,22,0.0,-999.0,56,-99.99,,,0.00,Acu-Link.com,2013-08-14 00:13:00,
2013-08-13 19:28:00,66.0,50.3,29.86,NNE,22,0.0,-999.0,57,-99.99,,,0.00,Acu-Link.com,2013-08-14 00:28:00,
2013-08-13 19:44:00,65.1,50.4,29.86,NNE,22,0.0,-999.0,59,-99.99,,,0.00,Acu-Link.com,2013-08-14 00:44:00,
2013-08-13 19:59:00,64.2,50.0,29.86,NE,45,0.0,-999.0,60,-99.99,,,0.00,Acu-Link.com,2013-08-14 00:59:00,
2013-08-13 20:14:00,63.3,50.9,29.87,NE,45,0.0,-999.0,64,-99.99,,,0.00,Acu-Link.com,2013-08-14 01:14:00,
2013-08-13 20:29:00,62.4,50.5,29.88,NE,45,0.0,-999.0,65,-99.99,,,0.00,Acu-Link.com,2013-08-14 01:29:00,
2013-08-13 20:45:00,61.9,50.4,29.87,East,90,0.0,-999.0,66,-99.99,,,0.00,Acu-Link.com,2013-08-14 01:45:00,
2013-08-13 21:00:00,61.5,50.4,29.89,NNE,22,0.0,-999.0,67,-99.99,,,0.00,Acu-Link.com,2013-08-14 02:00:00,
2013-08-13 21:15:00,61.2,50.6,29.90,NE,45,0.0,-999.0,68,-99.99,,,0.00,Acu-Link.com,2013-08-14 02:15:00,
2013-08-13 21:31:00,60.3,50.5,29.90,East,90,0.0,-999.0,70,-99.99,,,0.00,Acu-Link.com,2013-08-14 02:31:00,
2013-08-13 21:46:00,59.9,50.1,29.90,East,90,0.0,-999.0,70,-99.99,,,0.00,Acu-Link.com,2013-08-14 02:46:00,
2013-08-13 22:01:00,59.4,50.4,29.89,East,90,0.0,-999.0,72,-99.99,,,0.00,Acu-Link.com,2013-08-14 03:01:00,
2013-08-13 22:17:00,59.0,50.7,29.89,East,90,0.0,-999.0,74,-99.99,,,0.00,Acu-Link.com,2013-08-14 03:17:00,
2013-08-13 22:32:00,57.9,50.7,29.90,East,90,0.0,-999.0,77,-99.99,,,0.00,Acu-Link.com,2013-08-14 03:32:00,
2013-08-13 22:47:00,57.2,50.1,29.91,East,90,0.0,-999.0,77,-99.99,,,0.00,Acu-Link.com,2013-08-14 03:47:00,
2013-08-13 23:02:00,56.5,50.4,29.91,East,90,0.0,-999.0,80,-99.99,,,0.00,Acu-Link.com,2013-08-14 04:02:00,
2013-08-13 23:18:00,55.9,50.5,29.91,East,90,0.0,-999.0,82,-99.99,,,0.00,Acu-Link.com,2013-08-14 04:18:00,
2013-08-13 23:33:00,55.4,50.3,29.92,East,90,0.0,-999.0,83,-99.99,,,0.00,Acu-Link.com,2013-08-14 04:33:00,
2013-08-13 23:48:00,55.0,50.9,29.92,East,90,0.0,-999.0,86,-99.99,,,0.00,Acu-Link.com,2013-08-14 04:48:00,